createdAt,value
2023-03-11T00:00:18.925Z,9.63
2023-03-11T00:00:50.930Z,9.59
2023-03-11T00:01:22.670Z,9.64
2023-03-11T00:02:27.794Z,9.69
2023-03-11T00:03:08.156Z,9.66
2023-03-11T00:03:44.046Z,9.70
2023-03-11T00:04:15.834Z,9.75
2023-03-11T00:04:47.574Z,9.76
2023-03-11T00:05:20.764Z,9.71
2023-03-11T00:05:53.816Z,9.63
2023-03-11T00:07:01.088Z,9.62
2023-03-11T00:08:09.360Z,9.56
2023-03-11T00:08:41.394Z,9.49
2023-03-11T00:09:45.515Z,9.43
2023-03-11T00:10:30.093Z,9.35
2023-03-11T00:11:02.096Z,9.28
2023-03-11T00:12:07.785Z,9.21
2023-03-11T00:13:16.393Z,9.13
2023-03-11T00:13:49.111Z,9.17
2023-03-11T00:14:20.932Z,9.13
2023-03-11T00:14:52.739Z,9.14
2023-03-11T00:15:58.108Z,9.19
2023-03-11T00:16:31.183Z,9.24
2023-03-11T00:17:04.100Z,9.26
2023-03-11T00:17:37.121Z,9.29
2023-03-11T00:18:41.225Z,9.34
2023-03-11T00:19:14.083Z,9.38
2023-03-11T00:19:47.174Z,9.41
2023-03-11T00:20:26.217Z,9.33
2023-03-11T00:21:01.445Z,9.33
2023-03-11T00:21:33.739Z,9.35
2023-03-11T00:22:07.049Z,9.36
2023-03-11T00:22:38.849Z,9.30
2023-03-11T00:23:13.149Z,9.25
2023-03-11T00:23:46.874Z,9.29
2023-03-11T00:24:51.004Z,9.37
2023-03-11T00:25:30.004Z,9.39
2023-03-11T00:26:05.118Z,9.40
2023-03-11T00:26:39.990Z,9.42
2023-03-11T00:27:13.036Z,9.43
2023-03-11T00:27:44.863Z,9.44
2023-03-11T00:28:17.182Z,9.39
2023-03-11T00:28:49.554Z,9.34
2023-03-11T00:29:22.071Z,9.33
2023-03-11T00:30:28.024Z,9.29
2023-03-11T00:30:59.910Z,9.26
2023-03-11T00:31:31.744Z,9.24
2023-03-11T00:32:38.171Z,9.33
2023-03-11T00:33:12.768Z,9.32
2023-03-11T00:33:45.765Z,9.30
2023-03-11T00:34:17.547Z,9.21
2023-03-11T00:34:52.999Z,9.19
2023-03-11T00:35:28.234Z,9.16
2023-03-11T00:36:00.077Z,9.19
2023-03-11T00:36:31.734Z,9.18
2023-03-11T00:37:06.984Z,9.21
2023-03-11T00:37:38.749Z,9.25
2023-03-11T00:38:15.261Z,9.23
2023-03-11T00:39:23.376Z,9.15
2023-03-11T00:39:56.137Z,9.14
2023-03-11T00:40:31.581Z,9.09
2023-03-11T00:41:37.634Z,9.08
2023-03-11T00:42:41.809Z,9.10
2023-03-11T00:43:38.681Z,9.18
2023-03-11T00:44:46.064Z,9.19
2023-03-11T00:45:52.129Z,9.08
2023-03-11T00:46:29.909Z,9.04
2023-03-11T00:47:04.637Z,8.96
2023-03-11T00:47:36.451Z,8.95
2023-03-11T00:48:09.053Z,8.90
2023-03-11T00:48:40.891Z,8.87
2023-03-11T00:49:16.197Z,8.84
2023-03-11T00:49:47.947Z,8.81
2023-03-11T00:50:44.294Z,8.82
2023-03-11T00:51:17.227Z,8.81
2023-03-11T00:51:52.021Z,8.79
2023-03-11T00:52:27.198Z,8.79
2023-03-11T00:53:00.128Z,8.75
2023-03-11T00:53:35.008Z,8.73
2023-03-11T00:54:06.833Z,8.80
2023-03-11T00:55:23.749Z,8.84
2023-03-11T00:55:56.219Z,8.81
2023-03-11T00:56:35.924Z,8.77
2023-03-11T00:57:09.112Z,8.67
2023-03-11T00:57:42.673Z,8.70
2023-03-11T00:58:15.077Z,8.68
2023-03-11T00:58:50.049Z,8.64
2023-03-11T00:59:25.011Z,8.62
2023-03-11T00:59:59.904Z,8.59
2023-03-11T01:00:34.049Z,8.59
2023-03-11T01:01:13.829Z,8.61
2023-03-11T01:01:45.687Z,8.60
2023-03-11T01:02:52.459Z,8.51
2023-03-11T01:03:24.242Z,8.45
2023-03-11T01:04:32.109Z,8.39
2023-03-11T01:05:07.649Z,8.40
2023-03-11T01:05:43.157Z,8.39
2023-03-11T01:06:18.507Z,8.43
2023-03-11T01:06:52.174Z,8.50
2023-03-11T01:07:25.133Z,8.52
2023-03-11T01:07:58.879Z,8.52
2023-03-11T01:08:32.528Z,8.47
2023-03-11T01:09:38.729Z,8.44
2023-03-11T01:10:14.267Z,8.39
2023-03-11T01:10:49.770Z,8.38
2023-03-11T01:11:25.034Z,8.30
2023-03-11T01:11:57.256Z,8.24
2023-03-11T01:12:32.235Z,8.27
2023-03-11T01:13:06.315Z,8.27
2023-03-11T01:14:02.882Z,8.30
2023-03-11T01:15:26.101Z,8.26
2023-03-11T01:16:01.470Z,8.27
2023-03-11T01:16:33.380Z,8.29
2023-03-11T01:17:05.842Z,8.31
2023-03-11T01:17:39.065Z,8.36
2023-03-11T01:18:13.649Z,8.37
2023-03-11T01:18:49.224Z,8.39
2023-03-11T01:19:21.387Z,8.33
2023-03-11T01:19:54.109Z,8.30
2023-03-11T01:20:27.609Z,8.29
2023-03-11T01:21:01.320Z,8.28
2023-03-11T01:21:36.127Z,8.24
2023-03-11T01:22:11.456Z,8.24
2023-03-11T01:22:43.755Z,8.27
2023-03-11T01:23:18.666Z,8.32
2023-03-11T01:23:51.779Z,8.37
2023-03-11T01:24:23.581Z,8.39
2023-03-11T01:24:56.822Z,8.42
2023-03-11T01:25:30.330Z,8.43
2023-03-11T01:26:05.119Z,8.37
2023-03-11T01:26:36.933Z,8.30
2023-03-11T01:27:12.083Z,8.26
2023-03-11T01:27:45.418Z,8.25
2023-03-11T01:28:17.335Z,8.26
2023-03-11T01:28:52.092Z,8.25
2023-03-11T01:29:23.624Z,8.25
2023-03-11T01:29:57.223Z,8.24
2023-03-11T01:30:30.135Z,8.24
2023-03-11T01:31:02.202Z,8.24
2023-03-11T01:31:33.984Z,8.25
2023-03-11T01:32:39.168Z,8.22
2023-03-11T01:33:16.831Z,8.21
2023-03-11T01:33:48.632Z,8.19
2023-03-11T01:34:23.630Z,8.17
2023-03-11T01:34:55.376Z,8.20
2023-03-11T01:36:01.133Z,8.20
2023-03-11T01:37:05.398Z,8.19
2023-03-11T01:37:37.214Z,8.19
2023-03-11T01:38:45.074Z,8.17
2023-03-11T01:39:51.098Z,8.14
2023-03-11T01:40:42.681Z,8.15
2023-03-11T01:41:17.154Z,8.10
2023-03-11T01:42:24.840Z,8.15
2023-03-11T01:43:01.773Z,8.14
2023-03-11T01:43:47.062Z,8.09
2023-03-11T01:44:19.274Z,8.08
2023-03-11T01:45:50.242Z,8.04
2023-03-11T01:46:52.494Z,8.04
2023-03-11T01:47:39.652Z,8.02
2023-03-11T01:48:12.098Z,8.01
2023-03-11T01:48:55.908Z,8.01
2023-03-11T01:50:03.667Z,7.95
2023-03-11T01:50:43.158Z,7.97
2023-03-11T01:51:28.549Z,7.95
2023-03-11T01:52:07.864Z,7.91
2023-03-11T01:52:42.514Z,7.88
2023-03-11T01:53:47.182Z,7.84
2023-03-11T01:54:23.311Z,7.86
2023-03-11T01:54:56.525Z,7.89
2023-03-11T01:56:14.522Z,7.92
2023-03-11T01:57:20.553Z,7.93
2023-03-11T01:57:53.869Z,7.94
2023-03-11T01:58:58.854Z,7.98
2023-03-11T01:59:36.240Z,7.99
2023-03-11T02:01:05.540Z,7.86
2023-03-11T02:02:26.071Z,7.77
2023-03-11T02:03:02.370Z,7.76
2023-03-11T02:04:09.390Z,7.73
2023-03-11T02:04:44.026Z,7.71
2023-03-11T02:05:17.339Z,7.75
2023-03-11T02:05:52.438Z,7.71
2023-03-11T02:06:28.664Z,7.68
2023-03-11T02:07:03.452Z,7.71
2023-03-11T02:07:39.487Z,7.72
2023-03-11T02:08:11.364Z,7.79
2023-03-11T02:08:46.157Z,7.81
2023-03-11T02:09:24.264Z,7.85
2023-03-11T02:09:56.103Z,7.82
2023-03-11T02:10:28.379Z,7.75
2023-03-11T02:11:33.336Z,7.76
2023-03-11T02:12:11.073Z,7.77
2023-03-11T02:12:50.863Z,7.74
2023-03-11T02:13:24.047Z,7.73
2023-03-11T02:14:00.734Z,7.74
2023-03-11T02:15:08.762Z,7.72
2023-03-11T02:15:41.168Z,7.71
2023-03-11T02:16:14.545Z,7.73
2023-03-11T02:16:46.494Z,7.74
2023-03-11T02:17:50.844Z,7.75
2023-03-11T02:18:22.638Z,7.73
2023-03-11T02:19:31.608Z,7.66
2023-03-11T02:20:21.107Z,7.62
2023-03-11T02:21:33.054Z,7.62
2023-03-11T02:22:05.036Z,7.59
2023-03-11T02:22:37.143Z,7.59
2023-03-11T02:23:09.872Z,7.60
2023-03-11T02:24:08.083Z,7.66
2023-03-11T02:25:01.856Z,7.67
2023-03-11T02:25:46.240Z,7.65
2023-03-11T02:26:44.400Z,7.67
2023-03-11T02:27:55.627Z,7.68
2023-03-11T02:28:29.109Z,7.71
2023-03-11T02:29:34.985Z,7.86
2023-03-11T02:30:08.655Z,7.91
2023-03-11T02:30:44.072Z,7.93
2023-03-11T02:31:16.642Z,7.94
2023-03-11T02:31:49.980Z,7.96
2023-03-11T02:32:22.423Z,7.97
2023-03-11T02:33:32.632Z,8.01
2023-03-11T02:34:08.132Z,8.03
2023-03-11T02:35:17.330Z,8.06
2023-03-11T02:35:49.256Z,8.00
2023-03-11T02:36:38.529Z,7.90
2023-03-11T02:37:46.605Z,7.91
2023-03-11T02:38:18.917Z,7.95
2023-03-11T02:38:50.741Z,7.98
2023-03-11T02:39:36.291Z,8.02
2023-03-11T02:40:22.923Z,8.03
2023-03-11T02:41:28.811Z,8.04
2023-03-11T02:42:05.982Z,8.08
2023-03-11T02:42:37.823Z,8.10
2023-03-11T02:43:16.229Z,8.09
2023-03-11T02:44:21.777Z,8.02
2023-03-11T02:45:03.348Z,8.04
2023-03-11T02:45:40.508Z,8.00
2023-03-11T02:46:18.027Z,8.03
2023-03-11T02:46:50.177Z,8.06
2023-03-11T02:47:22.237Z,8.07
2023-03-11T02:48:28.441Z,8.00
2023-03-11T02:49:04.679Z,8.02
2023-03-11T02:49:37.258Z,8.05
2023-03-11T02:50:13.815Z,8.05
2023-03-11T02:51:18.437Z,8.07
2023-03-11T02:51:53.345Z,8.12
2023-03-11T02:52:28.114Z,8.10
2023-03-11T02:53:39.475Z,8.11
2023-03-11T02:54:12.163Z,8.10
2023-03-11T02:54:43.999Z,8.13
2023-03-11T02:55:18.178Z,8.15
2023-03-11T02:56:22.824Z,8.21
2023-03-11T02:56:56.318Z,8.18
2023-03-11T02:57:29.780Z,8.15
2023-03-11T02:58:02.883Z,8.20
2023-03-11T02:58:35.863Z,8.27
2023-03-11T02:59:10.887Z,8.31
2023-03-11T02:59:42.667Z,8.31
2023-03-11T03:00:50.614Z,8.32
2023-03-11T03:01:25.861Z,8.28
2023-03-11T03:01:57.806Z,8.25
2023-03-11T03:02:29.583Z,8.24
2023-03-11T03:03:01.617Z,8.22
2023-03-11T03:03:36.984Z,8.23
2023-03-11T03:04:41.675Z,8.25
2023-03-11T03:05:14.077Z,8.25
2023-03-11T03:06:19.148Z,8.19
2023-03-11T03:06:51.043Z,8.18
2023-03-11T03:07:22.927Z,8.18
2023-03-11T03:07:54.733Z,8.20
2023-03-11T03:08:26.612Z,8.20
2023-03-11T03:09:56.203Z,8.29
2023-03-11T03:10:28.032Z,8.37
2023-03-11T03:11:03.905Z,8.41
2023-03-11T03:11:35.717Z,8.39
2023-03-11T03:12:08.139Z,8.37
2023-03-11T03:12:44.080Z,8.38
2023-03-11T03:13:15.913Z,8.36
2023-03-11T03:13:47.718Z,8.36
2023-03-11T03:14:54.757Z,8.35
2023-03-11T03:15:27.637Z,8.38
2023-03-11T03:16:00.867Z,8.39
2023-03-11T03:16:35.801Z,8.31
2023-03-11T03:17:07.718Z,8.27
2023-03-11T03:17:39.702Z,8.37
2023-03-11T03:18:14.331Z,8.41
2023-03-11T03:18:47.883Z,8.45
2023-03-11T03:19:55.860Z,8.31
2023-03-11T03:20:27.785Z,8.33
2023-03-11T03:21:02.832Z,8.31
2023-03-11T03:21:37.760Z,8.32
2023-03-11T03:22:09.719Z,8.33
2023-03-11T03:22:42.451Z,8.33
2023-03-11T03:23:47.267Z,8.37
2023-03-11T03:24:20.867Z,8.36
2023-03-11T03:24:53.007Z,8.32
2023-03-11T03:25:57.094Z,8.47
2023-03-11T03:26:30.904Z,8.52
2023-03-11T03:27:02.986Z,8.52
2023-03-11T03:27:35.049Z,8.49
2023-03-11T03:28:10.510Z,8.45
2023-03-11T03:28:42.388Z,8.39
2023-03-11T03:29:14.212Z,8.39
2023-03-11T03:30:18.884Z,8.52
2023-03-11T03:30:54.187Z,8.52
2023-03-11T03:31:25.866Z,8.50
2023-03-11T03:32:00.964Z,8.51
2023-03-11T03:32:32.843Z,8.46
2023-03-11T03:33:05.328Z,8.44
2023-03-11T03:33:37.268Z,8.43
2023-03-11T03:34:44.798Z,8.62
2023-03-11T03:35:16.924Z,8.58
2023-03-11T03:36:07.883Z,8.62
2023-03-11T03:36:39.948Z,8.80
2023-03-11T03:37:11.898Z,8.88
2023-03-11T03:37:47.154Z,8.97
2023-03-11T03:38:20.371Z,9.02
2023-03-11T03:38:59.611Z,9.11
2023-03-11T03:40:08.410Z,9.22
2023-03-11T03:40:47.475Z,9.30
2023-03-11T03:41:23.620Z,9.39
2023-03-11T03:41:55.481Z,9.41
2023-03-11T03:42:28.525Z,9.48
2023-03-11T03:43:55.983Z,9.56
2023-03-11T03:44:28.001Z,9.60
2023-03-11T03:44:59.980Z,9.61
2023-03-11T03:45:31.933Z,9.61
2023-03-11T03:46:05.652Z,9.57
2023-03-11T03:46:38.582Z,9.61
2023-03-11T03:47:42.746Z,9.73
2023-03-11T03:48:14.718Z,9.75
2023-03-11T03:48:47.384Z,9.76
2023-03-11T03:49:19.213Z,9.74
2023-03-11T03:50:26.784Z,9.83
2023-03-11T03:51:04.552Z,9.81
2023-03-11T03:52:22.910Z,9.81
2023-03-11T03:52:55.820Z,9.81
2023-03-11T03:53:31.398Z,9.82
2023-03-11T03:54:03.212Z,9.86
2023-03-11T03:54:35.006Z,9.90
2023-03-11T03:55:40.814Z,9.85
2023-03-11T03:56:15.566Z,9.84
2023-03-11T03:57:20.238Z,9.92
2023-03-11T03:57:52.208Z,9.93
2023-03-11T03:58:24.076Z,9.89
2023-03-11T03:59:29.993Z,9.86
2023-03-11T04:00:05.632Z,9.89
2023-03-11T04:01:13.606Z,9.93
2023-03-11T04:02:21.878Z,9.90
2023-03-11T04:03:28.819Z,9.88
2023-03-11T04:04:03.932Z,9.82
2023-03-11T04:05:10.721Z,9.83
2023-03-11T04:05:45.767Z,9.86
2023-03-11T04:06:26.155Z,9.84
2023-03-11T04:06:59.913Z,9.84
2023-03-11T04:07:36.124Z,9.85
2023-03-11T04:08:12.351Z,9.83
2023-03-11T04:08:48.225Z,9.77
2023-03-11T04:09:21.959Z,9.71
2023-03-11T04:09:56.875Z,9.71
2023-03-11T04:10:31.815Z,9.70
2023-03-11T04:11:05.046Z,9.67
2023-03-11T04:11:39.877Z,9.61
2023-03-11T04:12:17.696Z,9.62
2023-03-11T04:12:55.261Z,9.64
2023-03-11T04:13:29.006Z,9.68
2023-03-11T04:14:05.880Z,9.65
2023-03-11T04:15:11.126Z,9.59
2023-03-11T04:15:44.853Z,9.57
2023-03-11T04:16:22.690Z,9.50
2023-03-11T04:16:55.991Z,9.50
2023-03-11T04:17:30.869Z,9.51
2023-03-11T04:18:05.942Z,9.54
2023-03-11T04:18:39.389Z,9.55
2023-03-11T04:19:13.963Z,9.54
2023-03-11T04:19:48.793Z,9.51
2023-03-11T04:20:23.855Z,9.47
2023-03-11T04:20:58.917Z,9.47
2023-03-11T04:21:34.108Z,9.45
2023-03-11T04:22:07.903Z,9.46
2023-03-11T04:22:42.844Z,9.40
2023-03-11T04:23:17.842Z,9.36
2023-03-11T04:23:53.037Z,9.34
2023-03-11T04:24:30.246Z,9.34
2023-03-11T04:25:37.830Z,9.25
2023-03-11T04:26:13.599Z,9.22
2023-03-11T04:26:46.942Z,9.22
2023-03-11T04:27:21.890Z,9.15
2023-03-11T04:27:57.016Z,9.12
2023-03-11T04:28:31.909Z,9.06
2023-03-11T04:29:06.801Z,9.05
2023-03-11T04:29:41.512Z,9.03
2023-03-11T04:30:17.184Z,8.98
2023-03-11T04:30:49.538Z,9.01
2023-03-11T04:31:24.908Z,9.02
2023-03-11T04:31:59.813Z,9.03
2023-03-11T04:32:35.150Z,9.01
2023-03-11T04:33:08.939Z,8.98
2023-03-11T04:33:43.806Z,8.85
2023-03-11T04:34:19.001Z,8.82
2023-03-11T04:35:26.872Z,8.92
2023-03-11T04:36:34.826Z,8.86
2023-03-11T04:37:06.837Z,8.80
2023-03-11T04:37:40.293Z,8.89
2023-03-11T04:38:13.954Z,8.94
2023-03-11T04:39:21.822Z,8.95
2023-03-11T04:39:57.016Z,8.99
2023-03-11T04:40:31.900Z,8.99
2023-03-11T04:41:07.722Z,8.95
2023-03-11T04:41:42.915Z,8.97
2023-03-11T04:42:19.228Z,8.95
2023-03-11T04:42:53.712Z,8.97
2023-03-11T04:43:29.316Z,8.97
2023-03-11T04:44:02.811Z,8.96
2023-03-11T04:44:38.014Z,8.93
2023-03-11T04:45:45.977Z,8.92
2023-03-11T04:46:20.965Z,8.93
2023-03-11T04:46:55.848Z,8.96
2023-03-11T04:47:30.802Z,8.97
2023-03-11T04:48:05.945Z,8.96
2023-03-11T04:48:40.977Z,8.97
2023-03-11T04:49:16.591Z,8.98
2023-03-11T04:49:51.864Z,9.00
2023-03-11T04:50:26.539Z,9.01
2023-03-11T04:51:01.912Z,9.05
2023-03-11T04:51:34.597Z,9.04
2023-03-11T04:52:09.821Z,9.08
2023-03-11T04:52:44.551Z,9.08
2023-03-11T04:53:16.822Z,9.08
2023-03-11T04:53:51.504Z,9.12
2023-03-11T04:54:24.996Z,9.10
2023-03-11T04:54:58.412Z,9.08
2023-03-11T04:55:31.603Z,9.09
2023-03-11T04:56:07.145Z,9.03
2023-03-11T04:56:39.897Z,9.06
2023-03-11T04:57:11.700Z,9.05
2023-03-11T04:57:44.129Z,9.04
2023-03-11T04:58:16.029Z,8.95
2023-03-11T04:58:50.841Z,9.02
2023-03-11T04:59:22.650Z,9.01
2023-03-11T04:59:54.558Z,8.95
2023-03-11T05:00:26.432Z,8.94
2023-03-11T05:00:58.374Z,8.91
2023-03-11T05:02:05.346Z,8.93
2023-03-11T05:02:40.872Z,8.95
2023-03-11T05:03:15.955Z,8.98
2023-03-11T05:03:47.981Z,8.93
2023-03-11T05:04:19.791Z,8.95
2023-03-11T05:04:51.677Z,8.93
2023-03-11T05:05:26.379Z,8.90
2023-03-11T05:06:00.376Z,8.91
2023-03-11T05:06:34.043Z,8.84
2023-03-11T05:07:08.788Z,8.82
2023-03-11T05:07:43.868Z,8.77
2023-03-11T05:08:15.708Z,8.82
2023-03-11T05:09:36.873Z,8.81
2023-03-11T05:10:09.441Z,8.82
2023-03-11T05:10:42.826Z,8.82
2023-03-11T05:11:47.448Z,8.76
2023-03-11T05:12:19.328Z,8.74
2023-03-11T05:13:26.791Z,8.71
2023-03-11T05:13:58.922Z,8.61
2023-03-11T05:14:31.344Z,8.60
2023-03-11T05:15:03.196Z,8.62
2023-03-11T05:15:35.650Z,8.59
2023-03-11T05:16:07.747Z,8.53
2023-03-11T05:16:39.572Z,8.52
2023-03-11T05:17:13.435Z,8.52
2023-03-11T05:17:45.433Z,8.47
2023-03-11T05:18:17.646Z,8.39
2023-03-11T05:18:49.445Z,8.30
2023-03-11T05:19:35.308Z,8.30
2023-03-11T05:20:40.557Z,8.26
2023-03-11T05:21:12.347Z,8.20
2023-03-11T05:22:17.531Z,8.09
2023-03-11T05:22:49.524Z,8.08
2023-03-11T05:23:21.327Z,8.07
2023-03-11T05:23:53.162Z,8.06
2023-03-11T05:24:27.815Z,8.03
2023-03-11T05:24:59.902Z,7.96
2023-03-11T05:25:33.684Z,8.01
2023-03-11T05:26:06.251Z,7.95
2023-03-11T05:26:38.015Z,7.91
2023-03-11T05:27:09.795Z,7.86
2023-03-11T05:28:15.616Z,7.87
2023-03-11T05:28:47.900Z,7.77
2023-03-11T05:29:53.533Z,7.71
2023-03-11T05:30:25.579Z,7.67
2023-03-11T05:30:58.505Z,7.62
2023-03-11T05:31:31.914Z,7.54
2023-03-11T05:32:04.141Z,7.47
2023-03-11T05:33:10.503Z,7.45
2023-03-11T05:33:45.882Z,7.39
2023-03-11T05:34:53.934Z,7.29
2023-03-11T05:35:26.067Z,7.25
2023-03-11T05:35:59.687Z,7.25
2023-03-11T05:36:32.929Z,7.25
2023-03-11T05:37:07.507Z,7.15
2023-03-11T05:37:41.055Z,7.09
2023-03-11T05:38:15.889Z,7.05
2023-03-11T05:38:55.260Z,7.01
2023-03-11T05:40:17.629Z,6.98
2023-03-11T05:40:51.304Z,6.93
2023-03-11T05:41:24.524Z,6.86
2023-03-11T05:42:00.488Z,6.79
2023-03-11T05:42:35.333Z,6.70
2023-03-11T05:43:10.352Z,6.60
2023-03-11T05:44:06.889Z,6.57
2023-03-11T05:45:13.485Z,6.46
2023-03-11T05:45:48.475Z,6.45
2023-03-11T05:46:31.366Z,6.35
2023-03-11T05:47:06.408Z,6.37
2023-03-11T05:47:42.258Z,6.37
2023-03-11T05:48:17.308Z,6.31
2023-03-11T05:48:50.742Z,6.33
2023-03-11T05:49:28.191Z,6.31
2023-03-11T05:50:11.478Z,6.35
2023-03-11T05:50:46.767Z,6.27
2023-03-11T05:51:22.439Z,6.26
2023-03-11T05:52:05.323Z,6.25
2023-03-11T05:52:40.491Z,6.24
2023-03-11T05:53:16.054Z,6.24
2023-03-11T05:53:49.560Z,6.22
2023-03-11T05:54:23.003Z,6.23
2023-03-11T05:54:55.060Z,6.17
2023-03-11T05:55:30.417Z,6.14
2023-03-11T05:56:06.753Z,6.11
2023-03-11T05:56:42.920Z,6.11
2023-03-11T05:57:15.868Z,6.10
2023-03-11T05:57:55.076Z,6.08
2023-03-11T05:58:27.827Z,6.10
2023-03-11T05:58:59.598Z,6.06
2023-03-11T06:00:12.666Z,6.02
2023-03-11T06:00:46.288Z,6.02
2023-03-11T06:01:27.240Z,5.97
2023-03-11T06:02:23.626Z,6.00
2023-03-11T06:02:55.488Z,5.93
2023-03-11T06:03:27.510Z,5.93
2023-03-11T06:04:32.651Z,5.89
2023-03-11T06:05:08.228Z,5.90
2023-03-11T06:05:50.880Z,5.86
2023-03-11T06:06:55.572Z,5.80
2023-03-11T06:07:29.337Z,5.85
2023-03-11T06:08:02.490Z,5.76
2023-03-11T06:08:35.709Z,5.66
2023-03-11T06:09:13.519Z,5.63
2023-03-11T06:09:45.415Z,5.63
2023-03-11T06:10:17.531Z,5.56
2023-03-11T06:11:25.793Z,5.50
2023-03-11T06:12:01.321Z,5.47
2023-03-11T06:12:35.351Z,5.45
2023-03-11T06:13:07.136Z,5.37
2023-03-11T06:13:42.616Z,5.29
2023-03-11T06:14:15.793Z,5.31
2023-03-11T06:14:48.133Z,5.31
2023-03-11T06:15:54.009Z,5.30
2023-03-11T06:16:27.431Z,5.28
2023-03-11T06:17:36.144Z,5.20
2023-03-11T06:18:09.533Z,5.19
2023-03-11T06:18:43.397Z,5.17
2023-03-11T06:19:52.038Z,5.10
2023-03-11T06:20:25.782Z,5.10
2023-03-11T06:21:01.925Z,5.06
2023-03-11T06:21:36.698Z,5.06
2023-03-11T06:22:41.141Z,5.00
2023-03-11T06:23:13.108Z,4.98
2023-03-11T06:23:45.160Z,5.00
2023-03-11T06:24:17.122Z,5.00
2023-03-11T06:24:49.192Z,5.01
2023-03-11T06:25:21.236Z,4.94
2023-03-11T06:26:29.312Z,4.85
2023-03-11T06:27:01.110Z,4.82
2023-03-11T06:28:10.840Z,4.80
2023-03-11T06:28:45.546Z,4.80
2023-03-11T06:29:54.503Z,4.77
2023-03-11T06:30:29.977Z,4.78
2023-03-11T06:31:11.715Z,4.68
2023-03-11T06:32:20.408Z,4.67
2023-03-11T06:32:55.813Z,4.69
2023-03-11T06:33:27.614Z,4.69
2023-03-11T06:34:32.902Z,4.69
2023-03-11T06:35:04.958Z,4.67
2023-03-11T06:36:12.719Z,4.63
2023-03-11T06:36:44.737Z,4.69
2023-03-11T06:38:13.610Z,4.63
2023-03-11T06:38:48.605Z,4.60
2023-03-11T06:39:58.883Z,4.57
2023-03-11T06:40:30.769Z,4.61
2023-03-11T06:41:05.558Z,4.62
2023-03-11T06:41:37.390Z,4.60
2023-03-11T06:42:11.987Z,4.59
2023-03-11T06:42:48.972Z,4.55
2023-03-11T06:43:22.636Z,4.55
2023-03-11T06:43:54.492Z,4.57
2023-03-11T06:44:26.333Z,4.55
2023-03-11T06:44:58.156Z,4.51
2023-03-11T06:45:29.996Z,4.50
2023-03-11T06:46:11.369Z,4.47
2023-03-11T06:46:43.217Z,4.51
2023-03-11T06:47:15.132Z,4.47
2023-03-11T06:48:19.560Z,4.40
2023-03-11T06:48:52.601Z,4.43
2023-03-11T06:49:24.843Z,4.39
2023-03-11T06:50:06.569Z,4.41
2023-03-11T06:50:42.309Z,4.43
2023-03-11T06:51:14.460Z,4.35
2023-03-11T06:52:21.929Z,4.44
2023-03-11T06:52:56.352Z,4.44
2023-03-11T06:53:31.832Z,4.39
2023-03-11T06:54:07.315Z,4.40
2023-03-11T06:55:11.944Z,4.36
2023-03-11T06:56:01.489Z,4.40
2023-03-11T06:56:36.227Z,4.41
2023-03-11T06:57:10.565Z,4.35
2023-03-11T06:57:46.686Z,4.35
2023-03-11T06:58:21.099Z,4.34
2023-03-11T06:58:54.004Z,4.35
2023-03-11T06:59:58.219Z,4.36
2023-03-11T07:00:33.525Z,4.34
2023-03-11T07:01:10.815Z,4.32
2023-03-11T07:01:44.344Z,4.33
2023-03-11T07:02:19.482Z,4.33
2023-03-11T07:02:51.478Z,4.39
2023-03-11T07:03:56.024Z,4.32
2023-03-11T07:04:31.652Z,4.34
2023-03-11T07:05:03.894Z,4.31
2023-03-11T07:05:37.435Z,4.33
2023-03-11T07:06:15.540Z,4.32
2023-03-11T07:06:47.309Z,4.35
2023-03-11T07:07:20.386Z,4.31
2023-03-11T07:07:55.414Z,4.34
2023-03-11T07:08:28.407Z,4.37
2023-03-11T07:09:00.354Z,4.37
2023-03-11T07:09:33.019Z,4.32
2023-03-11T07:10:05.928Z,4.30
2023-03-11T07:10:37.874Z,4.34
2023-03-11T07:11:14.756Z,4.33
2023-03-11T07:11:46.964Z,4.29
2023-03-11T07:12:19.076Z,4.32
2023-03-11T07:13:25.359Z,4.23
2023-03-11T07:13:57.172Z,4.25
2023-03-11T07:14:30.611Z,4.30
2023-03-11T07:15:02.519Z,4.31
2023-03-11T07:15:34.586Z,4.31
2023-03-11T07:16:11.536Z,4.37
2023-03-11T07:16:44.433Z,4.41
2023-03-11T07:17:52.823Z,4.31
2023-03-11T07:18:24.693Z,4.38
2023-03-11T07:19:03.010Z,4.37
2023-03-11T07:19:34.822Z,4.40
2023-03-11T07:20:07.362Z,4.39
2023-03-11T07:20:39.273Z,4.40
2023-03-11T07:21:14.658Z,4.30
2023-03-11T07:21:46.476Z,4.30
2023-03-11T07:22:18.504Z,4.24
2023-03-11T07:22:50.276Z,4.21
2023-03-11T07:23:22.175Z,4.25
2023-03-11T07:24:26.867Z,4.18
2023-03-11T07:24:59.210Z,4.21
2023-03-11T07:25:31.144Z,4.24
2023-03-11T07:26:03.028Z,4.28
2023-03-11T07:26:35.917Z,4.27
2023-03-11T07:27:07.813Z,4.23
2023-03-11T07:27:39.618Z,4.27
2023-03-11T07:28:12.862Z,4.28
2023-03-11T07:28:45.031Z,4.22
2023-03-11T07:29:17.164Z,4.18
2023-03-11T07:29:49.792Z,4.25
2023-03-11T07:30:21.730Z,4.25
2023-03-11T07:30:54.238Z,4.26
2023-03-11T07:31:28.745Z,4.32
2023-03-11T07:32:00.644Z,4.31
2023-03-11T07:32:32.408Z,4.22
2023-03-11T07:33:04.296Z,4.32
2023-03-11T07:33:37.450Z,4.23
2023-03-11T07:34:12.877Z,4.27
2023-03-11T07:34:44.886Z,4.33
2023-03-11T07:35:16.858Z,4.36
2023-03-11T07:35:49.502Z,4.23
2023-03-11T07:36:24.590Z,4.28
2023-03-11T07:36:56.368Z,4.29
2023-03-11T07:37:28.171Z,4.32
2023-03-11T07:38:00.623Z,4.31
2023-03-11T07:38:32.360Z,4.41
2023-03-11T07:39:05.870Z,4.48
2023-03-11T07:39:38.980Z,4.41
2023-03-11T07:40:11.343Z,4.30
2023-03-11T07:40:44.215Z,4.21
2023-03-11T07:41:16.671Z,4.19
2023-03-11T07:41:48.592Z,4.23
2023-03-11T07:42:20.691Z,4.30
2023-03-11T07:42:52.870Z,4.34
2023-03-11T07:43:24.716Z,4.39
2023-03-11T07:43:59.287Z,4.53
2023-03-11T07:44:31.036Z,4.45
2023-03-11T07:45:03.093Z,4.37
2023-03-11T07:45:34.907Z,4.44
2023-03-11T07:46:13.932Z,4.45
2023-03-11T07:46:46.406Z,4.51
2023-03-11T07:47:18.341Z,4.62
2023-03-11T07:47:50.182Z,4.71
2023-03-11T07:48:22.430Z,4.75
2023-03-11T07:48:55.347Z,4.65
2023-03-11T07:49:27.108Z,4.65
2023-03-11T07:49:58.895Z,4.57
2023-03-11T07:50:30.716Z,4.63
2023-03-11T07:51:06.374Z,4.63
2023-03-11T07:51:41.068Z,4.65
2023-03-11T07:52:12.886Z,4.67
2023-03-11T07:52:45.075Z,4.65
2023-03-11T07:53:16.919Z,4.72
2023-03-11T07:53:49.507Z,4.74
2023-03-11T07:54:21.331Z,4.74
2023-03-11T07:54:53.169Z,4.76
2023-03-11T07:55:25.016Z,4.77
2023-03-11T07:55:58.531Z,4.82
2023-03-11T07:56:34.748Z,4.81
2023-03-11T07:57:08.680Z,4.80
2023-03-11T07:57:40.460Z,4.87
2023-03-11T07:58:12.247Z,4.85
2023-03-11T07:58:46.009Z,4.84
2023-03-11T07:59:17.819Z,4.89
2023-03-11T07:59:49.667Z,4.95
2023-03-11T08:00:21.674Z,5.00
2023-03-11T08:00:55.530Z,5.03
2023-03-11T08:01:31.666Z,5.13
2023-03-11T08:02:03.758Z,5.13
2023-03-11T08:02:35.608Z,5.07
2023-03-11T08:03:07.399Z,5.06
2023-03-11T08:03:39.881Z,5.17
2023-03-11T08:04:14.166Z,5.16
2023-03-11T08:04:46.491Z,5.24
2023-03-11T08:05:20.955Z,5.26
2023-03-11T08:05:53.849Z,5.25
2023-03-11T08:06:32.027Z,5.22
2023-03-11T08:07:04.153Z,5.23
2023-03-11T08:07:36.200Z,5.26
2023-03-11T08:08:08.055Z,5.21
2023-03-11T08:08:40.032Z,5.24
2023-03-11T08:09:44.209Z,5.35
2023-03-11T08:10:16.136Z,5.42
2023-03-11T08:11:28.382Z,5.43
2023-03-11T08:12:00.868Z,5.46
2023-03-11T08:12:32.806Z,5.42
2023-03-11T08:13:05.351Z,5.38
2023-03-11T08:13:37.177Z,5.39
2023-03-11T08:14:41.455Z,5.58
2023-03-11T08:15:13.254Z,5.59
2023-03-11T08:15:45.130Z,5.58
2023-03-11T08:16:21.107Z,5.55
2023-03-11T08:16:54.405Z,5.66
2023-03-11T08:17:26.207Z,5.67
2023-03-11T08:18:31.057Z,5.62
2023-03-11T08:19:06.258Z,5.63
2023-03-11T08:20:02.865Z,5.65
2023-03-11T08:20:34.664Z,5.63
2023-03-11T08:21:08.428Z,5.64
2023-03-11T08:21:40.234Z,5.67
2023-03-11T08:22:12.854Z,5.69
2023-03-11T08:22:57.293Z,5.68
2023-03-11T08:23:30.036Z,5.72
2023-03-11T08:24:04.082Z,5.74
2023-03-11T08:25:09.264Z,5.75
2023-03-11T08:25:44.324Z,5.79
2023-03-11T08:26:19.166Z,5.83
2023-03-11T08:26:50.883Z,5.86
2023-03-11T08:27:22.828Z,5.87
2023-03-11T08:27:58.451Z,6.02
2023-03-11T08:28:30.311Z,6.02
2023-03-11T08:29:38.846Z,6.17
2023-03-11T08:30:12.937Z,6.09
2023-03-11T08:30:46.416Z,6.08
2023-03-11T08:31:24.297Z,6.05
2023-03-11T08:31:57.591Z,6.08
2023-03-11T08:32:32.929Z,6.08
2023-03-11T08:33:08.662Z,6.08
2023-03-11T08:33:42.838Z,6.14
2023-03-11T08:34:18.417Z,6.18
2023-03-11T08:34:53.313Z,6.22
2023-03-11T08:35:29.440Z,6.19
2023-03-11T08:36:04.470Z,6.20
2023-03-11T08:37:00.806Z,6.28
2023-03-11T08:38:14.119Z,6.33
2023-03-11T08:38:48.019Z,6.36
2023-03-11T08:39:53.321Z,6.44
2023-03-11T08:40:28.329Z,6.54
2023-03-11T08:41:00.987Z,6.54
2023-03-11T08:42:08.403Z,6.48
2023-03-11T08:42:41.451Z,6.40
2023-03-11T08:43:16.313Z,6.43
2023-03-11T08:43:49.757Z,6.44
2023-03-11T08:44:23.557Z,6.47
2023-03-11T08:45:31.402Z,6.47
2023-03-11T08:46:39.697Z,6.55
2023-03-11T08:47:13.671Z,6.62
2023-03-11T08:47:47.517Z,6.60
2023-03-11T08:48:23.805Z,6.65
2023-03-11T08:49:00.947Z,6.72
2023-03-11T08:49:38.260Z,6.70
2023-03-11T08:50:16.904Z,6.59
2023-03-11T08:50:54.670Z,6.63